sensor_id;sensor_type;location;lat;lon;timestamp;temperature;humidity
8095;DHT22;4090;49.270;8.696;2023-04-25T00:02:40;13.60;99.90
8095;DHT22;4090;49.270;8.696;2023-04-25T00:05:22;13.60;99.90
8095;DHT22;4090;49.270;8.696;2023-04-25T00:08:04;13.60;99.90
8095;DHT22;4090;49.270;8.696;2023-04-25T00:10:47;13.50;99.90
8095;DHT22;4090;49.270;8.696;2023-04-25T00:13:30;13.30;99.90
8095;DHT22;4090;49.270;8.696;2023-04-25T00:16:12;13.40;99.90
8095;DHT22;4090;49.270;8.696;2023-04-25T00:18:54;13.40;99.90
8095;DHT22;4090;49.270;8.696;2023-04-25T00:21:37;13.30;99.90
8095;DHT22;4090;49.270;8.696;2023-04-25T00:24:20;13.30;99.90
8095;DHT22;4090;49.270;8.696;2023-04-25T00:27:03;13.30;99.90
8095;DHT22;4090;49.270;8.696;2023-04-25T00:29:45;13.40;99.90
8095;DHT22;4090;49.270;8.696;2023-04-25T00:32:27;13.30;99.90
8095;DHT22;4090;49.270;8.696;2023-04-25T00:35:09;13.30;99.90
8095;DHT22;4090;49.270;8.696;2023-04-25T00:37:50;13.30;99.90
8095;DHT22;4090;49.270;8.696;2023-04-25T00:40:32;13.20;99.90
8095;DHT22;4090;49.270;8.696;2023-04-25T00:43:16;13.10;99.90
8095;DHT22;4090;49.270;8.696;2023-04-25T00:45:57;13.20;99.90
8095;DHT22;4090;49.270;8.696;2023-04-25T00:48:41;13.20;99.90
8095;DHT22;4090;49.270;8.696;2023-04-25T00:51:22;13.30;99.90
8095;DHT22;4090;49.270;8.696;2023-04-25T00:54:05;13.40;99.90
8095;DHT22;4090;49.270;8.696;2023-04-25T00:56:47;13.40;99.90
8095;DHT22;4090;49.270;8.696;2023-04-25T00:59:30;13.40;99.90
8095;DHT22;4090;49.270;8.696;2023-04-25T01:02:12;13.30;99.90
8095;DHT22;4090;49.270;8.696;2023-04-25T01:04:54;13.30;99.90
8095;DHT22;4090;49.270;8.696;2023-04-25T01:07:35;13.30;99.90
8095;DHT22;4090;49.270;8.696;2023-04-25T01:10:17;13.30;99.90
8095;DHT22;4090;49.270;8.696;2023-04-25T01:13:00;13.30;99.90
8095;DHT22;4090;49.270;8.696;2023-04-25T01:15:43;13.10;99.90
8095;DHT22;4090;49.270;8.696;2023-04-25T01:18:39;13.10;99.90
8095;DHT22;4090;49.270;8.696;2023-04-25T01:21:28;13.00;99.90
8095;DHT22;4090;49.270;8.696;2023-04-25T01:24:11;13.00;99.90
8095;DHT22;4090;49.270;8.696;2023-04-25T01:26:53;13.00;99.90
8095;DHT22;4090;49.270;8.696;2023-04-25T01:29:38;13.20;99.90
8095;DHT22;4090;49.270;8.696;2023-04-25T01:32:20;13.20;99.90
8095;DHT22;4090;49.270;8.696;2023-04-25T01:35:03;13.10;99.90
8095;DHT22;4090;49.270;8.696;2023-04-25T01:37:50;13.00;99.90
8095;DHT22;4090;49.270;8.696;2023-04-25T01:40:33;13.00;99.90
8095;DHT22;4090;49.270;8.696;2023-04-25T01:43:14;13.00;99.90
8095;DHT22;4090;49.270;8.696;2023-04-25T01:45:58;13.00;99.90
8095;DHT22;4090;49.270;8.696;2023-04-25T01:48:40;13.00;99.90
8095;DHT22;4090;49.270;8.696;2023-04-25T01:51:22;12.90;99.90
8095;DHT22;4090;49.270;8.696;2023-04-25T01:54:05;12.80;99.90
8095;DHT22;4090;49.270;8.696;2023-04-25T01:56:49;13.00;99.90
8095;DHT22;4090;49.270;8.696;2023-04-25T01:59:31;12.90;99.90
8095;DHT22;4090;49.270;8.696;2023-04-25T02:02:33;13.00;99.90
8095;DHT22;4090;49.270;8.696;2023-04-25T02:05:15;13.10;99.90
8095;DHT22;4090;49.270;8.696;2023-04-25T02:07:58;13.00;99.90
8095;DHT22;4090;49.270;8.696;2023-04-25T02:10:42;12.90;99.90
8095;DHT22;4090;49.270;8.696;2023-04-25T02:13:29;13.00;99.90
8095;DHT22;4090;49.270;8.696;2023-04-25T02:16:14;12.90;99.90
8095;DHT22;4090;49.270;8.696;2023-04-25T02:18:56;12.90;99.90
8095;DHT22;4090;49.270;8.696;2023-04-25T02:21:37;12.90;99.90
8095;DHT22;4090;49.270;8.696;2023-04-25T02:24:19;12.80;99.90
8095;DHT22;4090;49.270;8.696;2023-04-25T02:27:02;12.90;99.90
8095;DHT22;4090;49.270;8.696;2023-04-25T02:29:44;13.00;99.90
8095;DHT22;4090;49.270;8.696;2023-04-25T02:32:26;13.00;99.90
8095;DHT22;4090;49.270;8.696;2023-04-25T02:35:08;13.00;99.90
8095;DHT22;4090;49.270;8.696;2023-04-25T02:37:50;13.00;99.90
8095;DHT22;4090;49.270;8.696;2023-04-25T02:40:32;13.00;99.90
8095;DHT22;4090;49.270;8.696;2023-04-25T02:43:15;13.10;99.90
8095;DHT22;4090;49.270;8.696;2023-04-25T02:45:57;13.10;99.90
8095;DHT22;4090;49.270;8.696;2023-04-25T02:48:38;13.00;99.90
8095;DHT22;4090;49.270;8.696;2023-04-25T02:51:20;13.00;99.90
8095;DHT22;4090;49.270;8.696;2023-04-25T02:54:02;13.10;99.90
8095;DHT22;4090;49.270;8.696;2023-04-25T02:56:47;13.00;99.90
8095;DHT22;4090;49.270;8.696;2023-04-25T02:59:37;13.00;99.90
8095;DHT22;4090;49.270;8.696;2023-04-25T03:02:19;12.90;99.90
8095;DHT22;4090;49.270;8.696;2023-04-25T03:05:01;12.90;99.90
8095;DHT22;4090;49.270;8.696;2023-04-25T03:07:44;13.10;99.90
8095;DHT22;4090;49.270;8.696;2023-04-25T03:10:26;13.00;99.90
8095;DHT22;4090;49.270;8.696;2023-04-25T03:13:08;12.90;99.90
8095;DHT22;4090;49.270;8.696;2023-04-25T03:15:52;12.90;99.90
8095;DHT22;4090;49.270;8.696;2023-04-25T03:18:34;13.00;99.90
8095;DHT22;4090;49.270;8.696;2023-04-25T03:21:15;12.90;99.90
8095;DHT22;4090;49.270;8.696;2023-04-25T03:23:57;12.80;99.90
8095;DHT22;4090;49.270;8.696;2023-04-25T03:26:39;12.60;99.90
8095;DHT22;4090;49.270;8.696;2023-04-25T03:29:21;12.50;99.90
8095;DHT22;4090;49.270;8.696;2023-04-25T03:32:08;12.50;99.90
8095;DHT22;4090;49.270;8.696;2023-04-25T03:34:50;12.50;99.90
8095;DHT22;4090;49.270;8.696;2023-04-25T03:37:32;12.60;99.90
8095;DHT22;4090;49.270;8.696;2023-04-25T03:40:14;12.80;99.90
8095;DHT22;4090;49.270;8.696;2023-04-25T03:43:14;12.60;99.90
8095;DHT22;4090;49.270;8.696;2023-04-25T03:46:02;12.70;99.90
8095;DHT22;4090;49.270;8.696;2023-04-25T03:48:45;12.60;99.90
8095;DHT22;4090;49.270;8.696;2023-04-25T03:51:33;12.80;99.90
8095;DHT22;4090;49.270;8.696;2023-04-25T03:54:16;12.70;99.90
8095;DHT22;4090;49.270;8.696;2023-04-25T03:57:09;12.50;99.90
8095;DHT22;4090;49.270;8.696;2023-04-25T03:59:53;12.40;99.90
8095;DHT22;4090;49.270;8.696;2023-04-25T04:02:36;12.50;99.90
8095;DHT22;4090;49.270;8.696;2023-04-25T04:05:20;12.70;99.90
8095;DHT22;4090;49.270;8.696;2023-04-25T04:08:07;12.50;99.90
8095;DHT22;4090;49.270;8.696;2023-04-25T04:10:51;12.50;99.90
8095;DHT22;4090;49.270;8.696;2023-04-25T04:13:32;12.60;99.90
8095;DHT22;4090;49.270;8.696;2023-04-25T04:16:15;12.70;99.90
8095;DHT22;4090;49.270;8.696;2023-04-25T04:18:57;12.60;99.90
8095;DHT22;4090;49.270;8.696;2023-04-25T04:21:41;12.70;99.90
8095;DHT22;4090;49.270;8.696;2023-04-25T04:24:24;12.70;99.90
8095;DHT22;4090;49.270;8.696;2023-04-25T04:27:11;12.70;99.90
8095;DHT22;4090;49.270;8.696;2023-04-25T04:30:08;12.80;99.90
8095;DHT22;4090;49.270;8.696;2023-04-25T04:33:05;12.90;99.90
8095;DHT22;4090;49.270;8.696;2023-04-25T04:35:47;12.70;99.90
8095;DHT22;4090;49.270;8.696;2023-04-25T04:38:32;12.70;99.90
8095;DHT22;4090;49.270;8.696;2023-04-25T04:41:16;12.90;99.90
8095;DHT22;4090;49.270;8.696;2023-04-25T04:44:04;12.70;99.90
8095;DHT22;4090;49.270;8.696;2023-04-25T04:46:57;12.80;99.90
8095;DHT22;4090;49.270;8.696;2023-04-25T04:49:46;12.80;99.90
8095;DHT22;4090;49.270;8.696;2023-04-25T04:52:44;12.80;99.90
8095;DHT22;4090;49.270;8.696;2023-04-25T04:55:53;12.60;99.90
8095;DHT22;4090;49.270;8.696;2023-04-25T04:58:56;12.60;99.90
8095;DHT22;4090;49.270;8.696;2023-04-25T05:01:44;12.70;99.90
8095;DHT22;4090;49.270;8.696;2023-04-25T05:04:35;12.60;99.90
8095;DHT22;4090;49.270;8.696;2023-04-25T05:07:34;12.70;99.90
8095;DHT22;4090;49.270;8.696;2023-04-25T05:10:34;12.70;99.90
8095;DHT22;4090;49.270;8.696;2023-04-25T05:13:27;12.70;99.90
8095;DHT22;4090;49.270;8.696;2023-04-25T05:16:29;12.80;99.90
8095;DHT22;4090;49.270;8.696;2023-04-25T05:19:40;12.90;99.90
8095;DHT22;4090;49.270;8.696;2023-04-25T05:22:40;12.90;99.90
8095;DHT22;4090;49.270;8.696;2023-04-25T05:25:36;12.80;99.90
8095;DHT22;4090;49.270;8.696;2023-04-25T05:28:28;12.80;99.90
8095;DHT22;4090;49.270;8.696;2023-04-25T05:31:25;12.60;99.90
8095;DHT22;4090;49.270;8.696;2023-04-25T05:34:17;12.60;99.90
8095;DHT22;4090;49.270;8.696;2023-04-25T05:37:05;12.70;99.90
8095;DHT22;4090;49.270;8.696;2023-04-25T05:39:51;12.70;99.90
8095;DHT22;4090;49.270;8.696;2023-04-25T05:43:06;12.70;99.90
8095;DHT22;4090;49.270;8.696;2023-04-25T05:46:07;12.70;99.90
8095;DHT22;4090;49.270;8.696;2023-04-25T05:49:05;12.60;99.90
8095;DHT22;4090;49.270;8.696;2023-04-25T05:51:56;12.50;99.90
8095;DHT22;4090;49.270;8.696;2023-04-25T05:54:58;12.70;99.90
8095;DHT22;4090;49.270;8.696;2023-04-25T05:57:40;12.80;99.90
8095;DHT22;4090;49.270;8.696;2023-04-25T06:00:25;13.00;99.90
8095;DHT22;4090;49.270;8.696;2023-04-25T06:03:08;13.10;99.90
8095;DHT22;4090;49.270;8.696;2023-04-25T06:05:50;13.10;99.90
8095;DHT22;4090;49.270;8.696;2023-04-25T06:08:34;13.30;99.90
8095;DHT22;4090;49.270;8.696;2023-04-25T06:11:15;13.30;99.90
8095;DHT22;4090;49.270;8.696;2023-04-25T06:13:57;13.30;99.90
8095;DHT22;4090;49.270;8.696;2023-04-25T06:16:39;13.40;99.90
8095;DHT22;4090;49.270;8.696;2023-04-25T06:19:22;13.40;99.90
8095;DHT22;4090;49.270;8.696;2023-04-25T06:22:04;13.40;99.90
8095;DHT22;4090;49.270;8.696;2023-04-25T06:24:47;13.40;99.90
8095;DHT22;4090;49.270;8.696;2023-04-25T06:27:29;13.40;99.90
8095;DHT22;4090;49.270;8.696;2023-04-25T06:30:11;13.50;99.90
8095;DHT22;4090;49.270;8.696;2023-04-25T06:32:53;13.30;99.90
8095;DHT22;4090;49.270;8.696;2023-04-25T06:35:37;13.40;99.90
8095;DHT22;4090;49.270;8.696;2023-04-25T06:38:19;13.50;99.90
8095;DHT22;4090;49.270;8.696;2023-04-25T06:41:04;13.60;99.90
8095;DHT22;4090;49.270;8.696;2023-04-25T06:43:49;13.60;99.90
8095;DHT22;4090;49.270;8.696;2023-04-25T06:46:50;13.50;99.90
8095;DHT22;4090;49.270;8.696;2023-04-25T06:49:33;13.50;99.90
8095;DHT22;4090;49.270;8.696;2023-04-25T06:52:16;13.60;99.90
8095;DHT22;4090;49.270;8.696;2023-04-25T06:55:00;13.70;99.90
8095;DHT22;4090;49.270;8.696;2023-04-25T06:57:53;13.70;99.90
8095;DHT22;4090;49.270;8.696;2023-04-25T07:00:54;13.80;99.90
8095;DHT22;4090;49.270;8.696;2023-04-25T07:03:38;13.70;99.90
8095;DHT22;4090;49.270;8.696;2023-04-25T07:06:26;13.70;99.90
8095;DHT22;4090;49.270;8.696;2023-04-25T07:09:10;13.80;99.90
8095;DHT22;4090;49.270;8.696;2023-04-25T07:11:52;13.80;99.90
8095;DHT22;4090;49.270;8.696;2023-04-25T07:14:34;13.80;99.90
8095;DHT22;4090;49.270;8.696;2023-04-25T07:17:16;13.90;99.90
8095;DHT22;4090;49.270;8.696;2023-04-25T07:19:58;13.80;99.90
8095;DHT22;4090;49.270;8.696;2023-04-25T07:22:41;13.90;99.90
8095;DHT22;4090;49.270;8.696;2023-04-25T07:25:25;13.90;99.90
8095;DHT22;4090;49.270;8.696;2023-04-25T07:28:07;13.90;99.90
8095;DHT22;4090;49.270;8.696;2023-04-25T07:30:50;13.90;99.90
8095;DHT22;4090;49.270;8.696;2023-04-25T07:33:33;13.90;99.90
8095;DHT22;4090;49.270;8.696;2023-04-25T07:36:15;13.90;99.90
8095;DHT22;4090;49.270;8.696;2023-04-25T07:38:58;13.90;99.90
8095;DHT22;4090;49.270;8.696;2023-04-25T07:41:41;13.90;99.90
8095;DHT22;4090;49.270;8.696;2023-04-25T07:44:28;13.90;99.90
8095;DHT22;4090;49.270;8.696;2023-04-25T07:47:10;13.90;99.90
8095;DHT22;4090;49.270;8.696;2023-04-25T07:49:52;13.90;99.90
8095;DHT22;4090;49.270;8.696;2023-04-25T07:52:35;13.90;99.90
8095;DHT22;4090;49.270;8.696;2023-04-25T07:55:29;14.00;99.90
8095;DHT22;4090;49.270;8.696;2023-04-25T07:58:21;13.90;99.90
8095;DHT22;4090;49.270;8.696;2023-04-25T08:01:07;13.80;99.90
8095;DHT22;4090;49.270;8.696;2023-04-25T08:03:49;13.80;99.90
8095;DHT22;4090;49.270;8.696;2023-04-25T08:06:37;13.90;99.90
8095;DHT22;4090;49.270;8.696;2023-04-25T08:09:23;13.90;99.90
8095;DHT22;4090;49.270;8.696;2023-04-25T08:12:06;13.90;99.90
8095;DHT22;4090;49.270;8.696;2023-04-25T08:14:50;13.90;99.90
8095;DHT22;4090;49.270;8.696;2023-04-25T08:17:32;13.80;99.90
8095;DHT22;4090;49.270;8.696;2023-04-25T08:20:14;13.80;99.90
8095;DHT22;4090;49.270;8.696;2023-04-25T08:22:57;13.80;99.90
8095;DHT22;4090;49.270;8.696;2023-04-25T08:26:00;13.90;99.90
8095;DHT22;4090;49.270;8.696;2023-04-25T08:28:43;13.80;99.90
8095;DHT22;4090;49.270;8.696;2023-04-25T08:31:26;13.80;99.90
8095;DHT22;4090;49.270;8.696;2023-04-25T08:34:14;13.80;99.90
8095;DHT22;4090;49.270;8.696;2023-04-25T08:36:58;13.80;99.90
8095;DHT22;4090;49.270;8.696;2023-04-25T08:39:58;13.80;99.90
8095;DHT22;4090;49.270;8.696;2023-04-25T08:42:50;13.80;99.90
8095;DHT22;4090;49.270;8.696;2023-04-25T08:45:33;13.80;99.90
8095;DHT22;4090;49.270;8.696;2023-04-25T08:48:16;13.80;99.90
8095;DHT22;4090;49.270;8.696;2023-04-25T08:50:58;13.80;99.90
8095;DHT22;4090;49.270;8.696;2023-04-25T08:53:40;13.80;99.90
8095;DHT22;4090;49.270;8.696;2023-04-25T08:56:23;13.70;99.90
8095;DHT22;4090;49.270;8.696;2023-04-25T08:59:05;13.80;99.90
8095;DHT22;4090;49.270;8.696;2023-04-25T09:01:49;13.80;99.90
8095;DHT22;4090;49.270;8.696;2023-04-25T09:04:34;13.80;99.90
8095;DHT22;4090;49.270;8.696;2023-04-25T09:07:16;13.80;99.90
8095;DHT22;4090;49.270;8.696;2023-04-25T09:10:01;13.90;99.90
8095;DHT22;4090;49.270;8.696;2023-04-25T09:12:53;14.00;99.90
8095;DHT22;4090;49.270;8.696;2023-04-25T09:15:49;13.90;99.90
8095;DHT22;4090;49.270;8.696;2023-04-25T09:18:50;13.90;99.90
8095;DHT22;4090;49.270;8.696;2023-04-25T09:21:34;13.90;99.90
8095;DHT22;4090;49.270;8.696;2023-04-25T09:24:15;14.00;99.90
8095;DHT22;4090;49.270;8.696;2023-04-25T09:26:57;14.00;99.90
8095;DHT22;4090;49.270;8.696;2023-04-25T09:29:40;14.10;99.90
8095;DHT22;4090;49.270;8.696;2023-04-25T09:32:23;14.20;99.90
8095;DHT22;4090;49.270;8.696;2023-04-25T09:35:08;14.20;99.90
8095;DHT22;4090;49.270;8.696;2023-04-25T09:37:52;14.20;99.90
8095;DHT22;4090;49.270;8.696;2023-04-25T09:41:01;14.30;99.90
8095;DHT22;4090;49.270;8.696;2023-04-25T09:43:59;14.30;99.90
8095;DHT22;4090;49.270;8.696;2023-04-25T09:46:46;14.40;99.90
8095;DHT22;4090;49.270;8.696;2023-04-25T09:49:38;14.40;99.90
8095;DHT22;4090;49.270;8.696;2023-04-25T09:52:24;14.50;99.90
8095;DHT22;4090;49.270;8.696;2023-04-25T09:55:16;14.60;99.90
8095;DHT22;4090;49.270;8.696;2023-04-25T09:58:00;14.60;99.90
8095;DHT22;4090;49.270;8.696;2023-04-25T10:00:44;14.70;99.90
8095;DHT22;4090;49.270;8.696;2023-04-25T10:03:38;14.60;99.90
8095;DHT22;4090;49.270;8.696;2023-04-25T10:06:34;14.70;99.90
8095;DHT22;4090;49.270;8.696;2023-04-25T10:09:16;14.70;99.90
8095;DHT22;4090;49.270;8.696;2023-04-25T10:11:59;14.80;99.90
8095;DHT22;4090;49.270;8.696;2023-04-25T10:14:42;14.80;99.90
8095;DHT22;4090;49.270;8.696;2023-04-25T10:17:24;14.80;99.90
8095;DHT22;4090;49.270;8.696;2023-04-25T10:20:06;14.90;99.90
8095;DHT22;4090;49.270;8.696;2023-04-25T10:22:51;14.90;99.90
8095;DHT22;4090;49.270;8.696;2023-04-25T10:25:36;14.90;99.90
8095;DHT22;4090;49.270;8.696;2023-04-25T10:28:20;15.00;99.90
8095;DHT22;4090;49.270;8.696;2023-04-25T10:31:02;15.00;99.90
8095;DHT22;4090;49.270;8.696;2023-04-25T10:33:44;15.00;99.90
8095;DHT22;4090;49.270;8.696;2023-04-25T10:36:25;15.00;99.90
8095;DHT22;4090;49.270;8.696;2023-04-25T10:39:09;15.10;99.90
8095;DHT22;4090;49.270;8.696;2023-04-25T10:41:55;15.10;99.90
8095;DHT22;4090;49.270;8.696;2023-04-25T10:44:38;15.10;99.90
8095;DHT22;4090;49.270;8.696;2023-04-25T10:47:20;15.20;99.90
8095;DHT22;4090;49.270;8.696;2023-04-25T10:50:15;15.20;99.90
8095;DHT22;4090;49.270;8.696;2023-04-25T10:52:58;15.20;99.90
8095;DHT22;4090;49.270;8.696;2023-04-25T10:55:55;15.30;99.90
8095;DHT22;4090;49.270;8.696;2023-04-25T10:58:41;15.30;99.90
8095;DHT22;4090;49.270;8.696;2023-04-25T11:01:24;15.30;99.90
8095;DHT22;4090;49.270;8.696;2023-04-25T11:04:06;15.20;99.90
8095;DHT22;4090;49.270;8.696;2023-04-25T11:07:02;15.20;99.90
8095;DHT22;4090;49.270;8.696;2023-04-25T11:09:45;15.30;99.90
8095;DHT22;4090;49.270;8.696;2023-04-25T11:12:27;15.20;99.90
8095;DHT22;4090;49.270;8.696;2023-04-25T11:15:08;15.20;99.90
8095;DHT22;4090;49.270;8.696;2023-04-25T11:17:52;15.20;99.90
8095;DHT22;4090;49.270;8.696;2023-04-25T11:20:33;15.20;99.90
8095;DHT22;4090;49.270;8.696;2023-04-25T11:23:15;15.20;99.90
8095;DHT22;4090;49.270;8.696;2023-04-25T11:25:57;15.20;99.90
8095;DHT22;4090;49.270;8.696;2023-04-25T11:28:40;15.30;99.90
8095;DHT22;4090;49.270;8.696;2023-04-25T11:31:26;15.30;99.90
8095;DHT22;4090;49.270;8.696;2023-04-25T11:34:09;15.20;99.90
8095;DHT22;4090;49.270;8.696;2023-04-25T11:36:51;15.30;99.90
8095;DHT22;4090;49.270;8.696;2023-04-25T11:39:33;15.30;99.90
8095;DHT22;4090;49.270;8.696;2023-04-25T11:42:15;15.40;99.90
8095;DHT22;4090;49.270;8.696;2023-04-25T11:44:57;15.40;99.90
8095;DHT22;4090;49.270;8.696;2023-04-25T11:47:39;15.40;99.90
8095;DHT22;4090;49.270;8.696;2023-04-25T11:50:22;15.40;99.90
8095;DHT22;4090;49.270;8.696;2023-04-25T11:53:04;15.30;99.90
8095;DHT22;4090;49.270;8.696;2023-04-25T11:55:46;15.30;99.90
8095;DHT22;4090;49.270;8.696;2023-04-25T11:58:28;15.30;99.90
8095;DHT22;4090;49.270;8.696;2023-04-25T12:01:10;15.40;99.90
8095;DHT22;4090;49.270;8.696;2023-04-25T12:03:52;15.40;99.90
8095;DHT22;4090;49.270;8.696;2023-04-25T12:06:38;15.50;99.90
8095;DHT22;4090;49.270;8.696;2023-04-25T12:09:21;15.40;99.90
8095;DHT22;4090;49.270;8.696;2023-04-25T12:12:03;15.30;99.90
8095;DHT22;4090;49.270;8.696;2023-04-25T12:14:46;15.40;99.90
8095;DHT22;4090;49.270;8.696;2023-04-25T12:17:28;15.40;99.90
8095;DHT22;4090;49.270;8.696;2023-04-25T12:20:11;15.40;99.90
8095;DHT22;4090;49.270;8.696;2023-04-25T12:22:56;15.40;99.90
8095;DHT22;4090;49.270;8.696;2023-04-25T12:25:39;15.40;99.90
8095;DHT22;4090;49.270;8.696;2023-04-25T12:28:21;15.40;99.90
8095;DHT22;4090;49.270;8.696;2023-04-25T12:31:04;15.40;99.90
8095;DHT22;4090;49.270;8.696;2023-04-25T12:33:46;15.40;99.90
8095;DHT22;4090;49.270;8.696;2023-04-25T12:36:28;15.40;99.90
8095;DHT22;4090;49.270;8.696;2023-04-25T12:39:15;15.40;99.90
8095;DHT22;4090;49.270;8.696;2023-04-25T12:41:57;15.40;99.90
8095;DHT22;4090;49.270;8.696;2023-04-25T12:44:40;15.40;99.90
8095;DHT22;4090;49.270;8.696;2023-04-25T12:47:21;15.40;99.90
8095;DHT22;4090;49.270;8.696;2023-04-25T12:50:03;15.40;99.90
8095;DHT22;4090;49.270;8.696;2023-04-25T12:52:45;15.40;99.90
8095;DHT22;4090;49.270;8.696;2023-04-25T12:55:28;15.40;99.90
8095;DHT22;4090;49.270;8.696;2023-04-25T12:58:10;15.40;99.90
8095;DHT22;4090;49.270;8.696;2023-04-25T13:00:52;15.40;99.90
8095;DHT22;4090;49.270;8.696;2023-04-25T13:03:34;15.50;99.90
8095;DHT22;4090;49.270;8.696;2023-04-25T13:06:16;15.60;99.90
8095;DHT22;4090;49.270;8.696;2023-04-25T13:08:58;15.70;99.90
8095;DHT22;4090;49.270;8.696;2023-04-25T13:11:41;15.80;99.90
8095;DHT22;4090;49.270;8.696;2023-04-25T13:14:22;15.80;99.90
8095;DHT22;4090;49.270;8.696;2023-04-25T13:17:04;15.90;99.90
8095;DHT22;4090;49.270;8.696;2023-04-25T13:19:46;16.00;99.90
8095;DHT22;4090;49.270;8.696;2023-04-25T13:22:28;16.00;99.90
8095;DHT22;4090;49.270;8.696;2023-04-25T13:25:09;16.00;99.90
8095;DHT22;4090;49.270;8.696;2023-04-25T13:27:52;16.00;99.90
8095;DHT22;4090;49.270;8.696;2023-04-25T13:30:34;16.00;99.90
8095;DHT22;4090;49.270;8.696;2023-04-25T13:33:16;16.00;99.90
8095;DHT22;4090;49.270;8.696;2023-04-25T13:35:57;16.00;99.90
8095;DHT22;4090;49.270;8.696;2023-04-25T13:38:39;16.00;99.90
8095;DHT22;4090;49.270;8.696;2023-04-25T13:41:24;16.00;99.90
8095;DHT22;4090;49.270;8.696;2023-04-25T13:44:07;16.00;99.90
8095;DHT22;4090;49.270;8.696;2023-04-25T13:46:48;16.00;99.90
8095;DHT22;4090;49.270;8.696;2023-04-25T13:49:30;16.10;99.90
8095;DHT22;4090;49.270;8.696;2023-04-25T13:52:12;16.10;99.90
8095;DHT22;4090;49.270;8.696;2023-04-25T13:54:54;16.10;99.90
8095;DHT22;4090;49.270;8.696;2023-04-25T13:57:36;16.20;99.90
8095;DHT22;4090;49.270;8.696;2023-04-25T14:00:19;16.30;99.90
8095;DHT22;4090;49.270;8.696;2023-04-25T14:03:01;16.30;99.90
8095;DHT22;4090;49.270;8.696;2023-04-25T14:05:47;16.40;99.90
8095;DHT22;4090;49.270;8.696;2023-04-25T14:08:29;16.50;99.90
8095;DHT22;4090;49.270;8.696;2023-04-25T14:11:11;16.60;99.90
8095;DHT22;4090;49.270;8.696;2023-04-25T14:13:52;16.70;99.90
8095;DHT22;4090;49.270;8.696;2023-04-25T14:16:35;16.80;99.90
8095;DHT22;4090;49.270;8.696;2023-04-25T14:19:17;16.80;99.90
8095;DHT22;4090;49.270;8.696;2023-04-25T14:21:59;16.80;99.90
8095;DHT22;4090;49.270;8.696;2023-04-25T14:24:41;16.80;99.90
8095;DHT22;4090;49.270;8.696;2023-04-25T14:27:23;16.80;99.90
8095;DHT22;4090;49.270;8.696;2023-04-25T14:30:05;16.80;99.90
8095;DHT22;4090;49.270;8.696;2023-04-25T14:32:50;16.80;99.90
8095;DHT22;4090;49.270;8.696;2023-04-25T14:35:32;16.80;99.90
8095;DHT22;4090;49.270;8.696;2023-04-25T14:38:14;16.70;99.90
8095;DHT22;4090;49.270;8.696;2023-04-25T14:40:56;16.70;99.90
8095;DHT22;4090;49.270;8.696;2023-04-25T14:43:37;16.70;99.90
8095;DHT22;4090;49.270;8.696;2023-04-25T14:46:20;16.70;99.90
8095;DHT22;4090;49.270;8.696;2023-04-25T14:49:04;16.70;99.90
8095;DHT22;4090;49.270;8.696;2023-04-25T14:51:46;16.70;99.90
8095;DHT22;4090;49.270;8.696;2023-04-25T14:54:27;16.60;99.80
8095;DHT22;4090;49.270;8.696;2023-04-25T14:57:09;16.60;99.90
8095;DHT22;4090;49.270;8.696;2023-04-25T14:59:51;16.60;99.90
8095;DHT22;4090;49.270;8.696;2023-04-25T15:02:33;16.60;99.90
8095;DHT22;4090;49.270;8.696;2023-04-25T15:05:16;16.60;99.90
8095;DHT22;4090;49.270;8.696;2023-04-25T15:07:59;16.60;99.90
8095;DHT22;4090;49.270;8.696;2023-04-25T15:10:40;16.50;99.90
8095;DHT22;4090;49.270;8.696;2023-04-25T15:13:22;16.50;99.50
8095;DHT22;4090;49.270;8.696;2023-04-25T15:16:04;16.40;99.90
8095;DHT22;4090;49.270;8.696;2023-04-25T15:18:46;16.40;99.90
8095;DHT22;4090;49.270;8.696;2023-04-25T15:21:29;16.50;99.90
8095;DHT22;4090;49.270;8.696;2023-04-25T15:24:11;16.50;99.90
8095;DHT22;4090;49.270;8.696;2023-04-25T15:26:54;16.50;99.90
8095;DHT22;4090;49.270;8.696;2023-04-25T15:29:36;16.40;99.90
8095;DHT22;4090;49.270;8.696;2023-04-25T15:32:18;16.40;99.90
8095;DHT22;4090;49.270;8.696;2023-04-25T15:35:02;16.20;99.90
8095;DHT22;4090;49.270;8.696;2023-04-25T15:37:45;16.20;99.90
8095;DHT22;4090;49.270;8.696;2023-04-25T15:40:27;16.30;99.90
8095;DHT22;4090;49.270;8.696;2023-04-25T15:43:09;16.30;99.50
8095;DHT22;4090;49.270;8.696;2023-04-25T15:45:55;16.20;99.90
8095;DHT22;4090;49.270;8.696;2023-04-25T15:48:36;16.20;99.90
8095;DHT22;4090;49.270;8.696;2023-04-25T15:51:18;16.10;99.50
8095;DHT22;4090;49.270;8.696;2023-04-25T15:54:01;16.10;99.90
8095;DHT22;4090;49.270;8.696;2023-04-25T15:56:43;16.10;99.40
8095;DHT22;4090;49.270;8.696;2023-04-25T15:59:25;16.10;99.10
8095;DHT22;4090;49.270;8.696;2023-04-25T16:02:07;16.10;99.20
8095;DHT22;4090;49.270;8.696;2023-04-25T16:04:49;16.10;99.20
8095;DHT22;4090;49.270;8.696;2023-04-25T16:07:30;16.00;99.00
8095;DHT22;4090;49.270;8.696;2023-04-25T16:10:14;16.00;98.80
8095;DHT22;4090;49.270;8.696;2023-04-25T16:12:59;16.00;98.90
8095;DHT22;4090;49.270;8.696;2023-04-25T16:15:40;16.00;99.50
8095;DHT22;4090;49.270;8.696;2023-04-25T16:18:22;16.00;99.90
8095;DHT22;4090;49.270;8.696;2023-04-25T16:21:04;16.00;99.80
8095;DHT22;4090;49.270;8.696;2023-04-25T16:23:46;16.00;99.70
8095;DHT22;4090;49.270;8.696;2023-04-25T16:26:29;16.00;99.30
8095;DHT22;4090;49.270;8.696;2023-04-25T16:29:10;16.00;99.20
8095;DHT22;4090;49.270;8.696;2023-04-25T16:31:54;16.00;98.90
8095;DHT22;4090;49.270;8.696;2023-04-25T16:34:36;16.00;98.60
8095;DHT22;4090;49.270;8.696;2023-04-25T16:37:17;15.90;98.70
8095;DHT22;4090;49.270;8.696;2023-04-25T16:39:59;15.90;98.50
8095;DHT22;4090;49.270;8.696;2023-04-25T16:42:42;15.80;98.00
8095;DHT22;4090;49.270;8.696;2023-04-25T16:45:25;15.80;98.10
8095;DHT22;4090;49.270;8.696;2023-04-25T16:48:06;15.70;98.20
8095;DHT22;4090;49.270;8.696;2023-04-25T16:50:48;15.80;98.60
8095;DHT22;4090;49.270;8.696;2023-04-25T16:53:30;15.80;99.10
8095;DHT22;4090;49.270;8.696;2023-04-25T16:56:12;15.80;98.40
8095;DHT22;4090;49.270;8.696;2023-04-25T16:58:55;15.80;98.80
8095;DHT22;4090;49.270;8.696;2023-04-25T17:01:37;15.70;98.90
8095;DHT22;4090;49.270;8.696;2023-04-25T17:04:19;15.80;99.40
8095;DHT22;4090;49.270;8.696;2023-04-25T17:07:00;15.80;99.30
8095;DHT22;4090;49.270;8.696;2023-04-25T17:09:42;15.80;99.40
8095;DHT22;4090;49.270;8.696;2023-04-25T17:12:24;15.80;99.60
8095;DHT22;4090;49.270;8.696;2023-04-25T17:15:08;15.80;99.90
8095;DHT22;4090;49.270;8.696;2023-04-25T17:17:49;15.80;99.90
8095;DHT22;4090;49.270;8.696;2023-04-25T17:20:31;15.70;99.50
8095;DHT22;4090;49.270;8.696;2023-04-25T17:23:13;15.40;98.40
8095;DHT22;4090;49.270;8.696;2023-04-25T17:25:55;15.20;99.90
8095;DHT22;4090;49.270;8.696;2023-04-25T17:28:36;15.20;99.90
8095;DHT22;4090;49.270;8.696;2023-04-25T17:31:19;15.00;99.90
8095;DHT22;4090;49.270;8.696;2023-04-25T17:34:01;14.90;99.90
8095;DHT22;4090;49.270;8.696;2023-04-25T17:36:43;14.90;99.90
8095;DHT22;4090;49.270;8.696;2023-04-25T17:39:25;14.90;99.90
8095;DHT22;4090;49.270;8.696;2023-04-25T17:42:07;14.80;99.90
8095;DHT22;4090;49.270;8.696;2023-04-25T17:44:49;14.70;99.90
8095;DHT22;4090;49.270;8.696;2023-04-25T17:47:32;14.60;99.90
8095;DHT22;4090;49.270;8.696;2023-04-25T17:50:14;14.50;99.90
8095;DHT22;4090;49.270;8.696;2023-04-25T17:52:56;14.40;99.90
8095;DHT22;4090;49.270;8.696;2023-04-25T17:55:37;14.20;99.90